Brunette Downs, Australia
Current Conditions -  °F | °C
As of 7:00 PM on Wednesday 22 Oct 2014 (Local Time) from YTNK Reporting Station
Clear Clear  
Wind Chill: 90°   Ceiling: Unl
Heat Index: 90°   Visibility: 6mi
Dew Point: 32°   Wind: 8mph
Humidity: 13%   Direction: 110°ESE
Pressure: 29.94"   Gusts: NA
Location:  18.63°S, 136.03°E
Report Text: YTNK 221000Z AUTO 11007KT 9999 // NCD 32/M00 Q1014
Loading
Personal Weather Stations






























Interactive Weather Map
Tropical Storm Tracking
New forecast layout! Learn more

10-Day Weather Forecast

Advertisements
Track Severe Weather on mobile